createdAt,value
2017-08-24T00:01:49.380Z,99136
2017-08-24T00:03:59.072Z,99133
2017-08-24T00:06:07.078Z,99134
2017-08-24T00:08:14.591Z,99130
2017-08-24T00:10:20.832Z,99124
2017-08-24T00:12:27.044Z,99116
2017-08-24T00:14:32.980Z,99114
2017-08-24T00:16:39.578Z,99109
2017-08-24T00:18:54.536Z,99115
2017-08-24T00:21:04.080Z,99114
2017-08-24T00:23:10.962Z,99123
2017-08-24T00:25:18.128Z,99126
2017-08-24T00:27:25.304Z,99126
2017-08-24T00:29:32.656Z,99118
2017-08-24T00:31:38.782Z,99112
2017-08-24T00:35:58.878Z,99105
2017-08-24T00:38:05.272Z,99105
2017-08-24T00:40:12.269Z,99097
2017-08-24T00:42:19.558Z,99103
2017-08-24T00:44:25.841Z,99101
2017-08-24T00:46:31.724Z,99097
2017-08-24T00:48:38.337Z,99100
2017-08-24T00:50:49.956Z,99097
2017-08-24T00:52:59.421Z,99103
2017-08-24T00:55:08.020Z,99096
2017-08-24T00:57:14.940Z,99097
2017-08-24T00:59:22.073Z,99101
2017-08-24T01:01:31.279Z,99097
2017-08-24T01:03:37.793Z,99094
2017-08-24T01:05:49.498Z,99093
2017-08-24T01:07:59.362Z,99092
2017-08-24T01:10:07.122Z,99095
2017-08-24T01:12:15.612Z,99091
2017-08-24T01:14:22.172Z,99091
2017-08-24T01:16:28.362Z,99088
2017-08-24T01:18:34.357Z,99085
2017-08-24T01:20:40.858Z,99079
2017-08-24T01:22:54.196Z,99079
2017-08-24T01:25:01.982Z,99073
2017-08-24T01:27:10.084Z,99074
2017-08-24T01:29:16.307Z,99070
2017-08-24T01:31:22.633Z,99064
2017-08-24T01:33:29.076Z,99069
2017-08-24T01:35:35.244Z,99066
2017-08-24T01:37:42.717Z,99067
2017-08-24T01:39:54.610Z,99063
2017-08-24T01:42:02.295Z,99071
2017-08-24T01:44:08.492Z,99068
2017-08-24T01:46:15.779Z,99064
2017-08-24T01:48:23.515Z,99061
2017-08-24T01:50:30.149Z,99064
2017-08-24T01:52:37.764Z,99061
2017-08-24T01:54:52.123Z,99049
2017-08-24T01:57:03.454Z,99055
2017-08-24T01:59:11.915Z,99054
2017-08-24T02:01:19.131Z,99048
2017-08-24T02:03:25.283Z,99046
2017-08-24T02:05:31.895Z,99048
2017-08-24T02:07:38.020Z,99049
2017-08-24T02:09:51.317Z,99052
2017-08-24T02:11:59.632Z,99049
2017-08-24T02:14:06.334Z,99054
2017-08-24T02:16:13.229Z,99047
2017-08-24T02:18:21.108Z,99044
2017-08-24T02:20:27.751Z,99049
2017-08-24T02:22:34.651Z,99044
2017-08-24T02:24:41.453Z,99044
2017-08-24T02:26:47.847Z,99045
2017-08-24T02:28:57.865Z,99043
2017-08-24T02:31:05.122Z,99039
2017-08-24T02:33:14.186Z,99039
2017-08-24T02:35:19.919Z,99042
2017-08-24T02:37:28.220Z,99037
2017-08-24T02:39:34.573Z,99031
2017-08-24T02:41:41.064Z,99020
2017-08-24T02:43:55.087Z,99028
2017-08-24T02:48:52.601Z,99028
2017-08-24T02:51:01.111Z,99026
2017-08-24T02:53:07.931Z,99022
2017-08-24T02:55:16.660Z,99029
2017-08-24T02:57:24.590Z,99027
2017-08-24T02:59:30.391Z,99029
2017-08-24T03:01:36.590Z,99027
2017-08-24T03:03:43.286Z,99022
2017-08-24T03:05:54.361Z,99030
2017-08-24T03:08:03.886Z,99029
2017-08-24T03:10:10.577Z,99028
2017-08-24T03:12:17.413Z,99033
2017-08-24T03:14:37.105Z,99033
2017-08-24T03:20:13.144Z,99035
2017-08-24T03:22:20.833Z,99038
2017-08-24T03:24:32.408Z,99031
2017-08-24T03:26:38.248Z,99032
2017-08-24T03:28:49.798Z,99028
2017-08-24T03:30:57.526Z,99025
2017-08-24T03:33:06.503Z,99024
2017-08-24T03:35:13.344Z,99025
2017-08-24T03:37:18.907Z,99035
2017-08-24T03:39:25.419Z,99032
2017-08-24T03:41:32.420Z,99021
2017-08-24T03:43:39.454Z,99021
2017-08-24T03:45:54.553Z,99022
2017-08-24T03:48:01.839Z,99020
2017-08-24T03:50:10.041Z,99015
2017-08-24T03:52:16.105Z,99014
2017-08-24T03:54:22.047Z,99012
2017-08-24T03:56:28.411Z,99003
2017-08-24T03:58:34.767Z,99004
2017-08-24T04:00:40.942Z,99004
2017-08-24T04:02:54.497Z,99006
2017-08-24T04:05:02.012Z,99014
2017-08-24T04:07:08.743Z,99007
2017-08-24T04:09:15.418Z,99017
2017-08-24T04:11:22.331Z,99014
2017-08-24T04:13:28.222Z,99010
2017-08-24T04:15:34.640Z,99012
2017-08-24T04:17:42.521Z,99009
2017-08-24T04:19:55.470Z,99010
2017-08-24T04:22:04.314Z,99008
2017-08-24T04:24:09.976Z,99008
2017-08-24T04:26:15.606Z,99000
2017-08-24T04:28:23.309Z,98997
2017-08-24T04:30:29.911Z,98988
2017-08-24T04:32:36.555Z,98993
2017-08-24T04:34:45.918Z,98995
2017-08-24T04:36:58.533Z,98994
2017-08-24T04:39:06.494Z,98986
2017-08-24T04:41:13.218Z,98987
2017-08-24T04:43:32.269Z,98988
2017-08-24T04:45:37.850Z,98979
2017-08-24T04:47:56.305Z,98982
2017-08-24T04:50:11.183Z,98986
2017-08-24T04:52:18.336Z,98987
2017-08-24T04:54:26.157Z,98993
2017-08-24T04:56:32.786Z,98993
2017-08-24T04:58:45.669Z,99001
2017-08-24T05:01:12.628Z,98999
2017-08-24T05:03:22.985Z,98996
2017-08-24T05:05:30.441Z,98989
2017-08-24T05:07:38.529Z,98992
2017-08-24T05:09:55.094Z,98992
2017-08-24T05:12:03.546Z,98987
2017-08-24T05:14:13.535Z,98992
2017-08-24T05:16:20.566Z,98997
2017-08-24T05:18:27.675Z,98988
2017-08-24T05:20:35.943Z,98991
2017-08-24T05:22:42.179Z,98993
2017-08-24T05:24:52.470Z,98990
2017-08-24T05:26:59.755Z,98994
2017-08-24T05:29:05.543Z,98993
2017-08-24T05:31:11.364Z,98992
2017-08-24T05:33:20.761Z,98999
2017-08-24T05:35:28.190Z,99002
2017-08-24T05:37:34.922Z,99005
2017-08-24T05:39:41.468Z,99005
2017-08-24T05:41:51.252Z,99008
2017-08-24T05:43:59.485Z,99007
2017-08-24T05:46:06.019Z,99004
2017-08-24T05:48:11.944Z,99002
2017-08-24T05:50:18.290Z,99006
2017-08-24T05:52:24.400Z,99006
2017-08-24T05:54:30.507Z,99009
2017-08-24T05:56:36.069Z,99002
2017-08-24T05:58:48.635Z,99003
2017-08-24T06:00:57.554Z,98995
2017-08-24T06:03:04.037Z,99007
2017-08-24T06:05:11.176Z,99000
2017-08-24T06:07:18.820Z,99005
2017-08-24T06:09:24.622Z,99004
2017-08-24T06:11:30.387Z,99010
2017-08-24T06:13:36.440Z,99009
2017-08-24T06:15:42.992Z,99010
2017-08-24T06:17:52.612Z,99005
2017-08-24T06:19:59.611Z,98999
2017-08-24T06:22:05.433Z,98998
2017-08-24T06:24:12.367Z,98999
2017-08-24T06:26:17.961Z,99002
2017-08-24T06:28:25.544Z,99005
2017-08-24T06:30:32.111Z,98997
2017-08-24T06:32:38.347Z,98998
2017-08-24T06:34:48.009Z,98989
2017-08-24T06:39:07.909Z,98980
2017-08-24T06:41:18.215Z,98972
2017-08-24T06:43:25.683Z,98976
2017-08-24T06:45:31.892Z,98972
2017-08-24T06:47:37.657Z,98976
2017-08-24T06:49:50.857Z,98978
2017-08-24T06:51:57.938Z,98984
2017-08-24T06:54:03.586Z,98978
2017-08-24T06:56:09.201Z,98985
2017-08-24T06:58:17.576Z,98987
2017-08-24T07:00:24.421Z,98992
2017-08-24T07:02:31.482Z,98990
2017-08-24T07:04:38.901Z,98994
2017-08-24T07:06:49.816Z,98990
2017-08-24T07:08:58.093Z,99002
2017-08-24T07:11:05.232Z,99005
2017-08-24T07:13:11.725Z,99002
2017-08-24T07:15:18.565Z,99008
2017-08-24T07:17:26.169Z,99016
2017-08-24T07:19:32.528Z,99020
2017-08-24T07:21:40.123Z,99016
2017-08-24T07:23:54.250Z,99015
2017-08-24T07:26:02.268Z,99026
2017-08-24T07:28:09.170Z,99028
2017-08-24T07:30:19.013Z,99038
2017-08-24T07:32:33.421Z,99046
2017-08-24T07:34:43.781Z,99035
2017-08-24T07:36:52.905Z,99042
2017-08-24T07:39:01.553Z,99043
2017-08-24T07:41:07.384Z,99049
2017-08-24T07:43:13.599Z,99048
2017-08-24T07:45:22.400Z,99055
2017-08-24T07:47:30.109Z,99054
2017-08-24T07:49:39.126Z,99060
2017-08-24T07:51:52.188Z,99056
2017-08-24T07:54:00.958Z,99064
2017-08-24T07:56:08.558Z,99076
2017-08-24T07:58:15.390Z,99073
2017-08-24T08:00:23.012Z,99074
2017-08-24T08:02:29.633Z,99084
2017-08-24T08:04:36.709Z,99081
2017-08-24T08:06:43.377Z,99082
2017-08-24T08:08:54.433Z,99082
2017-08-24T08:11:01.811Z,99094
2017-08-24T08:13:09.656Z,99092
2017-08-24T08:15:16.823Z,99086
2017-08-24T08:17:22.270Z,99094
2017-08-24T08:19:28.236Z,99096
2017-08-24T08:21:34.376Z,99100
2017-08-24T08:23:40.061Z,99093
2017-08-24T08:25:45.836Z,99092
2017-08-24T08:27:58.690Z,99100
2017-08-24T08:30:05.134Z,99099
2017-08-24T08:32:11.683Z,99097
2017-08-24T08:34:18.034Z,99098
2017-08-24T08:36:23.847Z,99099
2017-08-24T08:38:29.811Z,99095
2017-08-24T08:40:36.980Z,99100
2017-08-24T08:42:42.812Z,99098
2017-08-24T08:44:51.007Z,99093
2017-08-24T08:47:01.538Z,99110
2017-08-24T08:49:07.191Z,99108
2017-08-24T08:51:13.563Z,99114
2017-08-24T08:53:26.196Z,99112
2017-08-24T08:55:31.968Z,99115
2017-08-24T08:57:38.709Z,99115
2017-08-24T08:59:48.961Z,99112
2017-08-24T09:01:56.010Z,99112
2017-08-24T09:04:01.825Z,99112
2017-08-24T09:06:08.662Z,99118
2017-08-24T09:08:16.143Z,99118
2017-08-24T09:10:22.998Z,99118
2017-08-24T09:12:30.366Z,99115
2017-08-24T09:14:38.122Z,99123
2017-08-24T09:16:45.669Z,99122
2017-08-24T09:18:57.629Z,99124
2017-08-24T09:21:06.563Z,99120
2017-08-24T09:23:13.018Z,99121
2017-08-24T09:25:19.438Z,99129
2017-08-24T09:27:25.168Z,99121
2017-08-24T09:29:31.613Z,99119
2017-08-24T09:31:37.721Z,99118
2017-08-24T09:33:44.059Z,99118
2017-08-24T09:35:52.680Z,99116
2017-08-24T09:38:00.509Z,99120
2017-08-24T09:40:06.280Z,99118
2017-08-24T09:42:12.862Z,99124
2017-08-24T09:44:19.532Z,99123
2017-08-24T09:46:25.540Z,99129
2017-08-24T09:48:32.804Z,99124
2017-08-24T09:50:38.907Z,99127
2017-08-24T09:52:51.196Z,99125
2017-08-24T09:54:57.363Z,99126
2017-08-24T09:57:04.812Z,99129
2017-08-24T09:59:11.452Z,99129
2017-08-24T10:01:18.508Z,99128
2017-08-24T10:03:24.575Z,99127
2017-08-24T10:05:30.284Z,99121
2017-08-24T10:07:39.306Z,99125
2017-08-24T10:09:49.598Z,99127
2017-08-24T10:14:09.535Z,99118
2017-08-24T10:16:15.801Z,99119
2017-08-24T10:18:22.385Z,99114
2017-08-24T10:20:29.215Z,99122
2017-08-24T10:22:36.017Z,99125
2017-08-24T10:24:50.003Z,99123
2017-08-24T10:26:59.288Z,99119
2017-08-24T10:29:05.977Z,99125
2017-08-24T10:31:11.808Z,99125
2017-08-24T10:33:17.904Z,99128
2017-08-24T10:35:24.252Z,99133
2017-08-24T10:37:30.030Z,99127
2017-08-24T10:39:36.557Z,99125
2017-08-24T10:41:44.903Z,99130
2017-08-24T10:43:53.422Z,99129
2017-08-24T10:46:00.286Z,99128
2017-08-24T10:48:07.835Z,99126
2017-08-24T10:50:13.701Z,99140
2017-08-24T10:52:19.717Z,99135
2017-08-24T10:54:29.245Z,99135
2017-08-24T10:56:35.049Z,99134
2017-08-24T10:58:44.047Z,99141
2017-08-24T11:00:55.552Z,99137
2017-08-24T11:03:04.000Z,99142
2017-08-24T11:05:11.629Z,99159
2017-08-24T11:07:24.599Z,99147
2017-08-24T11:09:31.666Z,99148
2017-08-24T11:11:37.775Z,99156
2017-08-24T11:13:48.312Z,99133
2017-08-24T11:15:59.023Z,99137
2017-08-24T11:18:12.157Z,99140
2017-08-24T11:20:19.769Z,99132
2017-08-24T11:22:26.797Z,99136
2017-08-24T11:24:34.075Z,99152
2017-08-24T11:26:41.923Z,99146
2017-08-24T11:28:58.206Z,99149
2017-08-24T11:31:07.325Z,99144
2017-08-24T11:33:13.865Z,99141
2017-08-24T11:35:23.530Z,99153
2017-08-24T11:37:31.519Z,99144
2017-08-24T11:39:41.705Z,99150
2017-08-24T11:41:54.269Z,99149
2017-08-24T11:44:00.088Z,99147
2017-08-24T11:46:06.617Z,99152
2017-08-24T11:48:13.415Z,99154
2017-08-24T11:50:19.630Z,99139
2017-08-24T11:52:27.726Z,99133
2017-08-24T11:54:34.916Z,99152
2017-08-24T11:56:40.830Z,99159
2017-08-24T11:58:52.524Z,99136
2017-08-24T12:01:03.955Z,99137
2017-08-24T12:03:13.980Z,99137
2017-08-24T12:05:22.480Z,99134
2017-08-24T12:07:29.164Z,99128
2017-08-24T12:09:35.629Z,99133
2017-08-24T12:11:44.211Z,99135
2017-08-24T12:13:53.859Z,99142
2017-08-24T12:16:02.123Z,99132
2017-08-24T12:18:08.256Z,99146
2017-08-24T12:20:16.514Z,99134
2017-08-24T12:22:22.275Z,99158
2017-08-24T12:24:28.335Z,99138
2017-08-24T12:26:34.904Z,99175
2017-08-24T12:28:42.433Z,99160
2017-08-24T12:30:51.942Z,99152
2017-08-24T12:32:57.903Z,99151
2017-08-24T12:35:04.286Z,99143
2017-08-24T12:37:11.840Z,99154
2017-08-24T12:39:18.811Z,99148
2017-08-24T12:41:24.456Z,99141
2017-08-24T12:43:30.367Z,99148
2017-08-24T12:45:36.050Z,99149
2017-08-24T12:47:44.846Z,99146
2017-08-24T12:49:57.497Z,99155
2017-08-24T12:52:05.044Z,99163
2017-08-24T12:54:12.159Z,99152
2017-08-24T12:56:18.668Z,99155
2017-08-24T12:58:25.027Z,99163
2017-08-24T13:00:31.626Z,99164
2017-08-24T13:02:38.057Z,99169
2017-08-24T13:04:46.943Z,99158
2017-08-24T13:06:56.940Z,99146
2017-08-24T13:09:02.802Z,99163
2017-08-24T13:11:09.886Z,99160
2017-08-24T13:13:18.193Z,99164
2017-08-24T13:15:25.227Z,99161
2017-08-24T13:17:31.900Z,99158
2017-08-24T13:19:38.318Z,99160
2017-08-24T13:21:47.172Z,99155
2017-08-24T13:23:58.132Z,99172
2017-08-24T13:26:05.098Z,99174
2017-08-24T13:28:11.317Z,99169
2017-08-24T13:30:19.370Z,99166
2017-08-24T13:32:27.527Z,99169
2017-08-24T13:34:34.852Z,99171
2017-08-24T13:36:42.457Z,99162
2017-08-24T13:38:52.785Z,99165
2017-08-24T13:40:59.506Z,99162
2017-08-24T13:43:06.952Z,99175
2017-08-24T13:45:13.321Z,99172
2017-08-24T13:47:20.617Z,99155
2017-08-24T13:49:29.816Z,99150
2017-08-24T13:51:38.431Z,99149
2017-08-24T13:53:49.893Z,99162
2017-08-24T13:55:56.074Z,99165
2017-08-24T13:58:04.834Z,99145
2017-08-24T14:00:14.447Z,99152
2017-08-24T14:02:21.516Z,99159
2017-08-24T14:04:27.768Z,99163
2017-08-24T14:06:40.260Z,99152
2017-08-24T14:11:07.863Z,99152
2017-08-24T14:13:16.564Z,99154
2017-08-24T14:15:22.641Z,99154
2017-08-24T14:17:30.859Z,99173
2017-08-24T14:19:40.855Z,99166
2017-08-24T14:21:51.839Z,99176
2017-08-24T14:24:00.558Z,99150
2017-08-24T14:26:10.147Z,99158
2017-08-24T14:28:17.320Z,99181
2017-08-24T14:30:23.971Z,99155
2017-08-24T14:32:41.054Z,99156
2017-08-24T14:34:49.068Z,99159
2017-08-24T14:36:56.520Z,99165
2017-08-24T14:39:05.207Z,99164
2017-08-24T14:41:14.988Z,99153
2017-08-24T14:43:23.156Z,99167
2017-08-24T14:45:31.329Z,99157
2017-08-24T14:47:40.439Z,99157
2017-08-24T14:49:48.796Z,99166
2017-08-24T14:51:56.981Z,99151
2017-08-24T14:54:04.523Z,99148
2017-08-24T14:56:17.615Z,99154
2017-08-24T14:58:23.895Z,99160
2017-08-24T15:00:39.649Z,99161
2017-08-24T15:02:48.540Z,99165
2017-08-24T15:05:03.460Z,99149
2017-08-24T15:07:22.759Z,99169
2017-08-24T15:09:46.514Z,99163
2017-08-24T15:12:00.866Z,99157
2017-08-24T15:14:09.410Z,99152
2017-08-24T15:16:16.492Z,99152
2017-08-24T15:18:22.654Z,99149
2017-08-24T15:20:28.493Z,99151
2017-08-24T15:22:37.741Z,99158
2017-08-24T15:24:49.289Z,99156
2017-08-24T15:26:59.847Z,99169
2017-08-24T15:29:09.267Z,99168
2017-08-24T15:31:16.050Z,99170
2017-08-24T15:33:21.783Z,99171
2017-08-24T15:35:28.922Z,99166
2017-08-24T15:37:41.203Z,99186
2017-08-24T15:39:47.079Z,99178
2017-08-24T15:41:53.911Z,99183
2017-08-24T15:44:00.971Z,99187
2017-08-24T15:46:06.934Z,99196
2017-08-24T15:48:14.230Z,99185
2017-08-24T15:50:21.095Z,99184
2017-08-24T15:52:27.447Z,99190
2017-08-24T15:54:33.184Z,99193
2017-08-24T15:56:39.322Z,99201
2017-08-24T15:58:48.973Z,99197
2017-08-24T16:00:56.479Z,99200
2017-08-24T16:03:02.671Z,99194
2017-08-24T16:05:09.761Z,99194
2017-08-24T16:07:16.873Z,99197
2017-08-24T16:09:23.581Z,99196
2017-08-24T16:11:31.939Z,99184
2017-08-24T16:13:41.984Z,99200
2017-08-24T16:15:50.525Z,99206
2017-08-24T16:17:57.033Z,99192
2017-08-24T16:20:07.532Z,99198
2017-08-24T16:22:12.995Z,99193
2017-08-24T16:24:18.967Z,99197
2017-08-24T16:26:24.883Z,99195
2017-08-24T16:28:30.284Z,99192
2017-08-24T16:30:38.751Z,99208
2017-08-24T16:32:44.807Z,99214
2017-08-24T16:34:50.685Z,99201
2017-08-24T16:36:58.488Z,99198
2017-08-24T16:39:05.202Z,99200
2017-08-24T16:41:12.269Z,99199
2017-08-24T16:43:18.756Z,99201
2017-08-24T16:45:25.112Z,99190
2017-08-24T16:47:31.524Z,99198
2017-08-24T16:49:41.562Z,99197
2017-08-24T16:51:49.634Z,99198
2017-08-24T16:53:57.497Z,99209
2017-08-24T16:56:05.641Z,99199
2017-08-24T16:58:13.590Z,99191
2017-08-24T17:00:20.793Z,99189
2017-08-24T17:02:27.281Z,99188
2017-08-24T17:04:35.791Z,99199
2017-08-24T17:06:44.216Z,99200
2017-08-24T17:08:52.049Z,99200
2017-08-24T17:11:00.385Z,99197
2017-08-24T17:13:07.607Z,99196
2017-08-24T17:15:13.996Z,99198
2017-08-24T17:17:21.158Z,99204
2017-08-24T17:19:27.521Z,99208
2017-08-24T17:21:33.338Z,99205
2017-08-24T17:23:41.416Z,99203
2017-08-24T17:25:51.276Z,99209
2017-08-24T17:28:00.971Z,99207
2017-08-24T17:30:06.816Z,99214
2017-08-24T17:32:13.020Z,99217
2017-08-24T17:34:19.031Z,99210
2017-08-24T17:36:26.957Z,99207
2017-08-24T17:38:32.632Z,99210
2017-08-24T17:40:38.390Z,99212
2017-08-24T17:42:50.527Z,99205
2017-08-24T17:45:02.393Z,99207
2017-08-24T17:47:14.765Z,99212
2017-08-24T17:49:22.017Z,99213
2017-08-24T17:51:27.843Z,99206
2017-08-24T17:53:34.563Z,99206
2017-08-24T17:55:42.167Z,99209
2017-08-24T17:57:55.035Z,99218
2017-08-24T18:00:04.719Z,99222
2017-08-24T18:02:15.351Z,99222
2017-08-24T18:04:24.666Z,99222
2017-08-24T18:06:40.207Z,99232
2017-08-24T18:08:50.973Z,99230
2017-08-24T18:11:05.252Z,99234
2017-08-24T18:13:18.389Z,99240
2017-08-24T18:15:29.938Z,99248
2017-08-24T18:17:38.210Z,99240
2017-08-24T18:19:48.741Z,99246
2017-08-24T18:22:02.046Z,99249
2017-08-24T18:24:09.861Z,99250
2017-08-24T18:26:19.273Z,99258
2017-08-24T18:28:30.673Z,99256
2017-08-24T18:30:44.235Z,99245
2017-08-24T18:32:58.657Z,99251
2017-08-24T18:35:11.652Z,99257
2017-08-24T18:37:18.736Z,99254
2017-08-24T18:39:25.442Z,99263
2017-08-24T18:41:33.291Z,99267
2017-08-24T18:43:43.451Z,99271
2017-08-24T18:45:54.242Z,99267
2017-08-24T18:48:01.742Z,99272
2017-08-24T18:50:13.212Z,99276
2017-08-24T18:52:19.208Z,99281
2017-08-24T18:54:25.904Z,99274
2017-08-24T18:56:37.628Z,99276
2017-08-24T18:58:50.370Z,99278
2017-08-24T19:01:00.055Z,99284
2017-08-24T19:03:14.641Z,99278
2017-08-24T19:05:22.817Z,99277
2017-08-24T19:07:29.386Z,99274
2017-08-24T19:09:36.030Z,99279
2017-08-24T19:11:45.974Z,99279
2017-08-24T19:13:55.666Z,99279
2017-08-24T19:16:03.533Z,99280
2017-08-24T19:18:11.601Z,99279
2017-08-24T19:20:23.358Z,99287
2017-08-24T19:22:29.670Z,99281
2017-08-24T19:24:37.460Z,99294
2017-08-24T19:26:46.701Z,99291
2017-08-24T19:28:55.537Z,99288
2017-08-24T19:31:04.194Z,99291
2017-08-24T19:33:11.510Z,99292
2017-08-24T19:35:34.555Z,99287
2017-08-24T19:37:45.492Z,99290
2017-08-24T19:39:56.546Z,99297
2017-08-24T19:42:06.568Z,99294
2017-08-24T19:44:17.066Z,99298
2017-08-24T19:46:30.145Z,99295
2017-08-24T19:48:47.503Z,99298
2017-08-24T19:51:18.013Z,99302
2017-08-24T19:53:25.322Z,99302
2017-08-24T19:55:31.403Z,99300
2017-08-24T20:02:29.837Z,99308
2017-08-24T20:04:38.008Z,99308
2017-08-24T20:06:50.836Z,99293
2017-08-24T20:08:58.152Z,99299
2017-08-24T20:11:08.597Z,99301
2017-08-24T20:13:18.213Z,99305
2017-08-24T20:15:24.770Z,99314
2017-08-24T20:17:31.479Z,99308
2017-08-24T20:19:37.131Z,99310
2017-08-24T20:21:44.862Z,99305
2017-08-24T20:23:52.124Z,99311
2017-08-24T20:26:10.594Z,99314
2017-08-24T20:28:16.703Z,99312
2017-08-24T20:30:22.931Z,99307
2017-08-24T20:32:28.595Z,99313
2017-08-24T20:34:35.772Z,99312
2017-08-24T20:36:43.699Z,99318
2017-08-24T20:38:51.636Z,99316
2017-08-24T20:41:02.145Z,99312
2017-08-24T20:43:10.220Z,99318
2017-08-24T20:45:18.969Z,99316
2017-08-24T20:47:27.455Z,99317
2017-08-24T20:49:38.489Z,99314
2017-08-24T20:51:51.602Z,99313
2017-08-24T20:54:02.103Z,99322
2017-08-24T20:56:12.312Z,99324
2017-08-24T20:58:17.945Z,99330
2017-08-24T21:00:26.812Z,99322
2017-08-24T21:02:38.274Z,99329
2017-08-24T21:04:59.602Z,99319
2017-08-24T21:07:06.052Z,99327
2017-08-24T21:09:24.409Z,99323
2017-08-24T21:11:31.785Z,99331
2017-08-24T21:13:38.738Z,99332
2017-08-24T21:15:47.964Z,99331
2017-08-24T21:17:59.267Z,99338
2017-08-24T21:20:21.175Z,99342
2017-08-24T21:22:33.236Z,99333
2017-08-24T21:24:39.977Z,99343
2017-08-24T21:26:47.936Z,99344
2017-08-24T21:28:55.287Z,99349
2017-08-24T21:31:12.128Z,99346
2017-08-24T21:33:28.292Z,99346
2017-08-24T21:35:35.039Z,99343
2017-08-24T21:37:41.136Z,99352
2017-08-24T21:39:49.060Z,99348
2017-08-24T21:41:57.943Z,99344
2017-08-24T21:44:04.202Z,99345
2017-08-24T21:46:12.925Z,99355
2017-08-24T21:48:56.614Z,99348
2017-08-24T21:53:52.167Z,99353
2017-08-24T21:56:28.856Z,99345
2017-08-24T21:58:51.503Z,99354
2017-08-24T22:01:03.892Z,99360
2017-08-24T22:03:19.596Z,99357
2017-08-24T22:05:32.810Z,99359
2017-08-24T22:07:47.121Z,99362
2017-08-24T22:09:56.317Z,99361
2017-08-24T22:12:04.189Z,99367
2017-08-24T22:14:11.837Z,99366
2017-08-24T22:16:20.903Z,99373
2017-08-24T22:18:29.086Z,99375
2017-08-24T22:20:37.999Z,99375
2017-08-24T22:22:47.175Z,99369
2017-08-24T22:25:01.127Z,99372
2017-08-24T22:27:07.937Z,99374
2017-08-24T22:29:17.008Z,99378
2017-08-24T22:31:24.313Z,99376
2017-08-24T22:33:31.847Z,99377
2017-08-24T22:35:38.433Z,99381
2017-08-24T22:38:45.242Z,99381
2017-08-24T22:40:53.326Z,99385
2017-08-24T22:43:01.466Z,99383
2017-08-24T22:45:10.500Z,99385
2017-08-24T22:47:23.153Z,99391
2017-08-24T22:50:19.234Z,99391
2017-08-24T22:52:24.850Z,99388
2017-08-24T23:01:54.253Z,99402
2017-08-24T23:04:01.402Z,99392
2017-08-24T23:06:10.135Z,99390
2017-08-24T23:08:18.752Z,99395
2017-08-24T23:10:25.770Z,99392
2017-08-24T23:12:32.218Z,99393
2017-08-24T23:14:38.483Z,99395
2017-08-24T23:16:50.900Z,99398
2017-08-24T23:19:00.025Z,99398
2017-08-24T23:21:06.378Z,99397
2017-08-24T23:23:12.352Z,99401
2017-08-24T23:25:20.964Z,99401
2017-08-24T23:27:26.840Z,99400
2017-08-24T23:29:32.752Z,99396
2017-08-24T23:31:38.899Z,99400
2017-08-24T23:33:47.635Z,99400
2017-08-24T23:35:55.231Z,99397
2017-08-24T23:38:02.074Z,99398
2017-08-24T23:40:29.832Z,99404
2017-08-24T23:42:50.805Z,99405
2017-08-24T23:45:36.376Z,99410
2017-08-24T23:47:49.923Z,99408
2017-08-24T23:50:13.535Z,99416
2017-08-24T23:52:32.733Z,99406
2017-08-24T23:54:39.149Z,99404
2017-08-24T23:56:48.743Z,99404
2017-08-24T23:58:58.719Z,99403
